Old Chatham, New York
Current Conditions -  °F | °C
As of 2:54 PM on Friday 24 Oct 2014 (Local Time) from KPSF Reporting Station
Overcast Overcast  
Wind Chill: 41°   Ceiling: 1000
Heat Index: 46°   Visibility: 10mi
Dew Point: 42°   Wind: 12mph
Humidity: 86%   Direction: 340°NNW
Pressure: 29.76"   Gusts: NA
Location:  42.44°N, 73.56°W
Report Text: KPSF 241854Z AUTO 34010KT 10SM OVC010 08/06 A2976 RMK AO2 SLP073 T00780056
Loading
Personal Weather Stations






























Interactive Weather Map
Tropical Storm Tracking
New forecast layout! Learn more

10-Day Weather Forecast

Advertisements
Track Severe Weather on mobile